^^

Meteo Aereoporti Centro-Italia

 

 
LIRZ - Perugia S.Egidio (208 m.)
Dati ricevuti: 03/07/2022 04:50
Sereno
Sereno
 Vento da NNE
Vento: NNE 7 km/h
TEMPERATURA: 20°C
P.to di Rugiada: 15°C
Umidità: 73%
Pressione: 1018 hPa
Nuvole: Sereno
Visibilità: 10 km
2022/07/03 02:50 LIRZ 030250Z AUTO 02004KT 9999 NCD 20/15 Q1018
 
LIPY - Ancona Falconara (12 m.)
Dati ricevuti: 03/07/2022 04:50
Sereno
Sereno
 Vento da S
Vento: S 4 km/h
TEMPERATURA: 20°C
P.to di Rugiada: 16°C
Umidità: 78%
Pressione: 1017 hPa
Nuvole: Sereno
Visibilità: 10 km
2022/07/03 02:50 LIPY 030250Z AUTO 18002KT 9999 NCD 20/16 Q1017
 
LIPR - Rimini Miramare (12 m.)
Dati ricevuti: 03/07/2022 04:50
Sereno
Sereno
 Vento da SW
Vento: SW 6 km/h
TEMPERATURA: 20°C
P.to di Rugiada: 16°C
Umidità: 78%
Pressione: 1016 hPa
Nuvole: Sereno
Visibilità: 10 km
2022/07/03 02:50 LIPR 030250Z AUTO 22003KT 200V260 9999 NCD 20/16 Q1016
 
LIRF - Roma Fiumicino (2 m.)
Dati ricevuti: 03/07/2022 04:50
Sereno
Sereno
 Vento da direzione variabile
Vento: direzione variabile 2 km/h
TEMPERATURA: 20°C
P.to di Rugiada: 16°C
Umidità: 78%
Pressione: 1015 hPa
Condizioni generali: Sereno
Visibilità: oltre 10 km
2022/07/03 02:50 LIRF 030250Z VRB01KT CAVOK 20/16 Q1015 NOSIG
 
LIRA - Roma Ciampino (129 m.)
Dati ricevuti: 03/07/2022 04:50
Sereno
Sereno
 Vento da direzione variabile
Vento: direzione variabile 2 km/h
TEMPERATURA: 23°C
P.to di Rugiada: 13°C
Umidità: 53%
Pressione: 1016 hPa
Condizioni generali: Sereno
Visibilità: oltre 10 km
2022/07/03 02:50 LIRA 030250Z VRB01KT CAVOK 23/13 Q1016
 
LIRU - Roma Urbe (17 m.)
Dati ricevuti: 02/07/2022 19:50
Dati non aggiornati
Sereno
Sereno
 Vento da WSW
Vento: WSW 9 km/h
TEMPERATURA: 33°C
P.to di Rugiada: 14°C
Umidità: 32%
Pressione: 1014 hPa
Condizioni generali: Sereno
Visibilità: oltre 10 km
2022/07/02 17:50 LIRU 021750Z 25005KT 210V280 CAVOK 33/14 Q1014
 
LIVF - Frontone (570 m.)
Dati ricevuti: 03/07/2022 04:55
Sereno
Sereno
 Vento da NE
Vento: NE 4 km/h
TEMPERATURA: 23°C
P.to di Rugiada: 13°C
Umidità: 53%
Pressione: 1018 hPa
Condizioni generali: Sereno
Visibilità: oltre 10 km
2022/07/03 02:55 LIVF 030255Z 05002KT CAVOK 23/13 Q1018
 
LIRQ - Firenze Peretola (40 m.)
Dati ricevuti: 03/07/2022 04:50
Sereno
Sereno
 Vento da direzione variabile
Vento: direzione variabile 2 km/h
TEMPERATURA: 20°C
P.to di Rugiada: 18°C
Umidità: 88%
Pressione: 1017 hPa
Condizioni generali: Sereno
Visibilità: oltre 10 km
2022/07/03 02:50 LIRQ 030250Z VRB01KT CAVOK 20/18 Q1017
 
LIBP - Pescara (10 m.)
Dati ricevuti: 03/07/2022 04:50
Sereno
Sereno
 Vento da SSW
Vento: SSW 9 km/h
TEMPERATURA: 21°C
P.to di Rugiada: 19°C
Umidità: 88%
Pressione: 1017 hPa
Nuvole: Sereno
Visibilità: 10 km
2022/07/03 02:50 LIBP 030250Z AUTO 20005KT 9999 NCD 21/19 Q1017
 
LIRV - Viterbo (300 m.)
Dati ricevuti: 02/07/2022 20:55
Dati non aggiornati
Sereno
Sereno
 Vento da SSW
Vento: SSW 11 km/h
TEMPERATURA: 28°C
P.to di Rugiada: 11°C
Umidità: 35%
Pressione: 1017 hPa
Condizioni generali: Sereno
Visibilità: oltre 10 km
2022/07/02 18:55 LIRV 021855Z 20006KT CAVOK 28/11 Q1017
 
LIQN - Rieti (389 m.)
Dati ricevuti: 02/07/2022 19:50
Dati non aggiornati
Sereno
Sereno
 Vento da W
Vento: W 6 km/h
TEMPERATURA: 33°C
P.to di Rugiada: 12°C
Umidità: 28%
Pressione: 1017 hPa
Condizioni generali: Sereno
Visibilità: oltre 10 km
2022/07/02 17:50 LIQN 021750Z 28003KT CAVOK 33/12 Q1017
 
LIRG - Guidonia -RM- (88 m.)
Dati ricevuti: 01/07/2022 19:55
Dati non aggiornati
Sereno
Sereno
 Vento da W
Vento: W 9 km/h
TEMPERATURA: 31°C
P.to di Rugiada: 12°C
Umidità: 31%
Pressione: 1014 hPa
Condizioni generali: Sereno
Visibilità: oltre 10 km
2022/07/01 17:55 LIRG 011755Z 28005KT CAVOK 31/12 Q1014
 
LIRK - Terminillo -RI-(1874 m.)
Dati ricevuti: 03/07/2022 04:55

 Vento da NNW
Vento: NNW 24 km/h
TEMPERATURA: 18°C
P.to di Rugiada: 8°C
Umidità: 52%
Pressione: 1029 hPa
2022/07/03 02:55 LIRK 030255Z AUTO 33013KT //// 18/08 Q1029
 
LIPK - Forlì (27 m.)
Dati ricevuti: 02/07/2022 22:50
Dati non aggiornati
Sereno
Sereno
 Vento da direzione variabile
Vento: direzione variabile 4 km/h
TEMPERATURA: 25°C
P.to di Rugiada: 17°C
Umidità: 61%
Pressione: 1017 hPa
Condizioni generali: Sereno
Visibilità: oltre 10 km
2022/07/02 20:50 LIPK 022050Z VRB02KT CAVOK 25/17 Q1017
 
LIRS - Grosseto (5 m.)
Dati ricevuti: 03/07/2022 04:55
Sereno
Sereno
 Vento da N
Vento: N 9 km/h
TEMPERATURA: 22°C
P.to di Rugiada: 19°C
Umidità: 83%
Pressione: 1016 hPa
Condizioni generali: Sereno
Visibilità: oltre 10 km
2022/07/03 02:55 LIRS 030255Z 01005KT CAVOK 22/19 Q1016
 
LIRP - Pisa S.Giusto (2 m.)
Dati ricevuti: 03/07/2022 04:45
Sereno
Sereno
 Vento da ESE
Vento: ESE 9 km/h
TEMPERATURA: 20°C
P.to di Rugiada: 19°C
Umidità: 94%
Pressione: 1017 hPa
Condizioni generali: Sereno
Visibilità: oltre 10 km
2022/07/03 02:45 LIRP 030245Z 11005KT CAVOK 20/19 Q1017 NOSIG